sensor_id;sensor_type;location;lat;lon;timestamp;temperature;humidity
72380;SHT30;60354;47.798;12.472;2023-07-31T00:01:19;18.13;75.47
72380;SHT30;60354;47.798;12.472;2023-07-31T00:03:45;18.08;75.59
72380;SHT30;60354;47.798;12.472;2023-07-31T00:06:11;18.15;75.34
72380;SHT30;60354;47.798;12.472;2023-07-31T00:08:37;18.12;74.88
72380;SHT30;60354;47.798;12.472;2023-07-31T00:11:02;18.10;74.55
72380;SHT30;60354;47.798;12.472;2023-07-31T00:13:28;18.13;75.67
72380;SHT30;60354;47.798;12.472;2023-07-31T00:15:53;18.12;75.94
72380;SHT30;60354;47.798;12.472;2023-07-31T00:18:18;18.06;77.04
72380;SHT30;60354;47.798;12.472;2023-07-31T00:20:44;18.05;77.69
72380;SHT30;60354;47.798;12.472;2023-07-31T00:23:09;18.06;77.84
72380;SHT30;60354;47.798;12.472;2023-07-31T00:25:35;18.02;78.80
72380;SHT30;60354;47.798;12.472;2023-07-31T00:28:00;18.01;78.89
72380;SHT30;60354;47.798;12.472;2023-07-31T00:30:26;18.01;79.08
72380;SHT30;60354;47.798;12.472;2023-07-31T00:32:53;17.95;79.50
72380;SHT30;60354;47.798;12.472;2023-07-31T00:35:18;18.04;78.92
72380;SHT30;60354;47.798;12.472;2023-07-31T00:37:44;17.91;79.48
72380;SHT30;60354;47.798;12.472;2023-07-31T00:40:09;17.88;79.32
72380;SHT30;60354;47.798;12.472;2023-07-31T00:42:35;17.87;79.23
72380;SHT30;60354;47.798;12.472;2023-07-31T00:45:00;17.81;78.58
72380;SHT30;60354;47.798;12.472;2023-07-31T00:47:26;17.85;78.72
72380;SHT30;60354;47.798;12.472;2023-07-31T00:49:52;17.81;78.43
72380;SHT30;60354;47.798;12.472;2023-07-31T00:52:18;17.67;79.79
72380;SHT30;60354;47.798;12.472;2023-07-31T00:54:44;17.61;80.31
72380;SHT30;60354;47.798;12.472;2023-07-31T00:57:09;17.54;80.12
72380;SHT30;60354;47.798;12.472;2023-07-31T00:59:35;17.51;80.07
72380;SHT30;60354;47.798;12.472;2023-07-31T01:02:02;17.57;79.91
72380;SHT30;60354;47.798;12.472;2023-07-31T01:04:28;17.53;79.25
72380;SHT30;60354;47.798;12.472;2023-07-31T01:09:57;17.57;79.24
72380;SHT30;60354;47.798;12.472;2023-07-31T01:12:24;17.58;79.05
72380;SHT30;60354;47.798;12.472;2023-07-31T01:15:08;17.43;79.20
72380;SHT30;60354;47.798;12.472;2023-07-31T01:17:41;17.44;79.10
72380;SHT30;60354;47.798;12.472;2023-07-31T01:20:20;17.46;79.06
72380;SHT30;60354;47.798;12.472;2023-07-31T01:23:16;17.23;80.35
72380;SHT30;60354;47.798;12.472;2023-07-31T01:31:25;17.07;80.67
72380;SHT30;60354;47.798;12.472;2023-07-31T01:33:53;16.99;80.88
72380;SHT30;60354;47.798;12.472;2023-07-31T01:36:20;16.93;81.62
72380;SHT30;60354;47.798;12.472;2023-07-31T01:38:45;16.85;81.80
72380;SHT30;60354;47.798;12.472;2023-07-31T01:41:11;16.90;81.61
72380;SHT30;60354;47.798;12.472;2023-07-31T01:43:37;16.86;81.56
72380;SHT30;60354;47.798;12.472;2023-07-31T01:46:04;16.95;81.28
72380;SHT30;60354;47.798;12.472;2023-07-31T01:48:32;16.86;81.42
72380;SHT30;60354;47.798;12.472;2023-07-31T01:51:01;16.78;81.53
72380;SHT30;60354;47.798;12.472;2023-07-31T01:53:27;16.79;81.44
72380;SHT30;60354;47.798;12.472;2023-07-31T01:55:52;16.85;81.49
72380;SHT30;60354;47.798;12.472;2023-07-31T01:58:18;16.82;81.88
72380;SHT30;60354;47.798;12.472;2023-07-31T02:00:43;16.76;81.79
72380;SHT30;60354;47.798;12.472;2023-07-31T02:03:09;16.62;82.07
72380;SHT30;60354;47.798;12.472;2023-07-31T02:05:34;16.69;81.89
72380;SHT30;60354;47.798;12.472;2023-07-31T02:08:00;16.80;81.55
72380;SHT30;60354;47.798;12.472;2023-07-31T02:10:26;16.82;81.22
72380;SHT30;60354;47.798;12.472;2023-07-31T02:12:52;16.87;81.01
72380;SHT30;60354;47.798;12.472;2023-07-31T02:15:17;16.86;80.72
72380;SHT30;60354;47.798;12.472;2023-07-31T02:17:43;16.86;80.80
72380;SHT30;60354;47.798;12.472;2023-07-31T02:20:09;16.59;82.07
72380;SHT30;60354;47.798;12.472;2023-07-31T02:22:35;16.58;82.03
72380;SHT30;60354;47.798;12.472;2023-07-31T02:25:01;16.58;81.89
72380;SHT30;60354;47.798;12.472;2023-07-31T02:27:27;16.61;82.11
72380;SHT30;60354;47.798;12.472;2023-07-31T02:29:53;16.66;82.25
72380;SHT30;60354;47.798;12.472;2023-07-31T02:32:18;16.64;82.24
72380;SHT30;60354;47.798;12.472;2023-07-31T02:34:44;16.62;82.29
72380;SHT30;60354;47.798;12.472;2023-07-31T02:37:09;16.68;81.57
72380;SHT30;60354;47.798;12.472;2023-07-31T02:39:35;16.64;81.45
72380;SHT30;60354;47.798;12.472;2023-07-31T02:42:00;16.68;81.39
72380;SHT30;60354;47.798;12.472;2023-07-31T02:44:26;16.76;80.98
72380;SHT30;60354;47.798;12.472;2023-07-31T02:46:51;16.79;81.05
72380;SHT30;60354;47.798;12.472;2023-07-31T02:49:17;16.76;81.47
72380;SHT30;60354;47.798;12.472;2023-07-31T02:51:42;16.75;80.36
72380;SHT30;60354;47.798;12.472;2023-07-31T02:54:08;16.78;80.13
72380;SHT30;60354;47.798;12.472;2023-07-31T02:56:33;16.78;79.56
72380;SHT30;60354;47.798;12.472;2023-07-31T02:58:58;16.75;79.58
72380;SHT30;60354;47.798;12.472;2023-07-31T03:01:24;16.69;79.46
72380;SHT30;60354;47.798;12.472;2023-07-31T03:03:49;16.71;80.12
72380;SHT30;60354;47.798;12.472;2023-07-31T03:06:15;16.75;79.29
72380;SHT30;60354;47.798;12.472;2023-07-31T03:08:41;16.75;79.44
72380;SHT30;60354;47.798;12.472;2023-07-31T03:11:06;16.62;79.04
72380;SHT30;60354;47.798;12.472;2023-07-31T03:13:32;16.58;78.99
72380;SHT30;60354;47.798;12.472;2023-07-31T03:15:57;16.61;78.90
72380;SHT30;60354;47.798;12.472;2023-07-31T03:18:23;16.59;78.86
72380;SHT30;60354;47.798;12.472;2023-07-31T03:20:48;16.52;79.20
72380;SHT30;60354;47.798;12.472;2023-07-31T03:23:15;16.47;79.21
72380;SHT30;60354;47.798;12.472;2023-07-31T03:25:55;16.45;79.20
72380;SHT30;60354;47.798;12.472;2023-07-31T03:28:20;16.34;79.38
72380;SHT30;60354;47.798;12.472;2023-07-31T03:30:46;16.25;79.32
72380;SHT30;60354;47.798;12.472;2023-07-31T03:33:11;16.22;79.80
72380;SHT30;60354;47.798;12.472;2023-07-31T03:35:37;16.28;79.44
72380;SHT30;60354;47.798;12.472;2023-07-31T03:38:02;16.24;79.79
72380;SHT30;60354;47.798;12.472;2023-07-31T03:40:27;16.32;79.74
72380;SHT30;60354;47.798;12.472;2023-07-31T03:42:53;16.28;79.12
72380;SHT30;60354;47.798;12.472;2023-07-31T03:45:18;16.25;79.14
72380;SHT30;60354;47.798;12.472;2023-07-31T03:47:45;16.27;79.30
72380;SHT30;60354;47.798;12.472;2023-07-31T03:50:10;16.34;79.11
72380;SHT30;60354;47.798;12.472;2023-07-31T03:52:36;16.37;79.15
72380;SHT30;60354;47.798;12.472;2023-07-31T03:55:01;16.38;78.81
72380;SHT30;60354;47.798;12.472;2023-07-31T03:57:26;16.38;78.90
72380;SHT30;60354;47.798;12.472;2023-07-31T03:59:52;16.37;79.05
72380;SHT30;60354;47.798;12.472;2023-07-31T04:02:17;16.42;78.87
72380;SHT30;60354;47.798;12.472;2023-07-31T04:04:44;16.42;79.33
72380;SHT30;60354;47.798;12.472;2023-07-31T04:07:09;16.48;79.13
72380;SHT30;60354;47.798;12.472;2023-07-31T04:09:34;16.47;79.59
72380;SHT30;60354;47.798;12.472;2023-07-31T04:12:00;16.42;79.91
72380;SHT30;60354;47.798;12.472;2023-07-31T04:14:25;16.40;79.65
72380;SHT30;60354;47.798;12.472;2023-07-31T04:16:51;16.38;79.47
72380;SHT30;60354;47.798;12.472;2023-07-31T04:19:17;16.32;80.08
72380;SHT30;60354;47.798;12.472;2023-07-31T04:21:43;16.44;79.54
72380;SHT30;60354;47.798;12.472;2023-07-31T04:24:09;16.41;80.40
72380;SHT30;60354;47.798;12.472;2023-07-31T04:26:34;16.34;79.53
72380;SHT30;60354;47.798;12.472;2023-07-31T04:28:59;16.38;79.26
72380;SHT30;60354;47.798;12.472;2023-07-31T04:31:25;16.45;78.76
72380;SHT30;60354;47.798;12.472;2023-07-31T04:33:50;16.48;78.72
72380;SHT30;60354;47.798;12.472;2023-07-31T04:36:16;16.55;78.23
72380;SHT30;60354;47.798;12.472;2023-07-31T04:38:41;16.59;78.16
72380;SHT30;60354;47.798;12.472;2023-07-31T04:41:07;16.62;78.24
72380;SHT30;60354;47.798;12.472;2023-07-31T04:43:32;16.61;78.45
72380;SHT30;60354;47.798;12.472;2023-07-31T04:45:58;16.64;78.26
72380;SHT30;60354;47.798;12.472;2023-07-31T04:48:23;16.54;78.85
72380;SHT30;60354;47.798;12.472;2023-07-31T04:50:49;16.59;78.81
72380;SHT30;60354;47.798;12.472;2023-07-31T04:53:14;16.59;78.90
72380;SHT30;60354;47.798;12.472;2023-07-31T04:55:40;16.68;78.53
72380;SHT30;60354;47.798;12.472;2023-07-31T04:58:05;16.65;78.59
72380;SHT30;60354;47.798;12.472;2023-07-31T05:00:31;16.69;78.16
72380;SHT30;60354;47.798;12.472;2023-07-31T05:02:56;16.64;78.21
72380;SHT30;60354;47.798;12.472;2023-07-31T05:05:22;16.62;78.33
72380;SHT30;60354;47.798;12.472;2023-07-31T05:07:47;16.58;78.35
72380;SHT30;60354;47.798;12.472;2023-07-31T05:10:13;16.54;78.25
72380;SHT30;60354;47.798;12.472;2023-07-31T05:12:38;16.55;78.18
72380;SHT30;60354;47.798;12.472;2023-07-31T05:15:04;16.56;78.52
72380;SHT30;60354;47.798;12.472;2023-07-31T05:17:30;16.58;78.57
72380;SHT30;60354;47.798;12.472;2023-07-31T05:19:55;16.66;78.45
72380;SHT30;60354;47.798;12.472;2023-07-31T05:22:21;16.73;78.13
72380;SHT30;60354;47.798;12.472;2023-07-31T05:24:46;16.86;78.14
72380;SHT30;60354;47.798;12.472;2023-07-31T05:27:11;16.85;78.02
72380;SHT30;60354;47.798;12.472;2023-07-31T05:29:40;16.92;77.65
72380;SHT30;60354;47.798;12.472;2023-07-31T05:32:06;17.02;77.56
72380;SHT30;60354;47.798;12.472;2023-07-31T05:34:32;17.16;77.33
72380;SHT30;60354;47.798;12.472;2023-07-31T05:36:57;17.34;77.15
72380;SHT30;60354;47.798;12.472;2023-07-31T05:39:22;17.50;76.55
72380;SHT30;60354;47.798;12.472;2023-07-31T05:41:48;17.88;75.84
72380;SHT30;60354;47.798;12.472;2023-07-31T05:44:13;18.26;74.59
72380;SHT30;60354;47.798;12.472;2023-07-31T05:46:39;18.68;72.75
72380;SHT30;60354;47.798;12.472;2023-07-31T05:49:04;19.04;71.23
72380;SHT30;60354;47.798;12.472;2023-07-31T05:51:30;19.34;69.24
72380;SHT30;60354;47.798;12.472;2023-07-31T05:53:55;19.49;69.98
72380;SHT30;60354;47.798;12.472;2023-07-31T05:56:21;19.87;68.12
72380;SHT30;60354;47.798;12.472;2023-07-31T05:58:46;20.16;68.06
72380;SHT30;60354;47.798;12.472;2023-07-31T06:01:15;19.94;68.74
72380;SHT30;60354;47.798;12.472;2023-07-31T06:03:41;19.58;68.56
72380;SHT30;60354;47.798;12.472;2023-07-31T06:06:06;19.87;68.41
72380;SHT30;60354;47.798;12.472;2023-07-31T06:08:31;19.90;67.37
72380;SHT30;60354;47.798;12.472;2023-07-31T06:10:58;20.12;67.37
72380;SHT30;60354;47.798;12.472;2023-07-31T06:13:23;20.31;67.15
72380;SHT30;60354;47.798;12.472;2023-07-31T06:15:48;20.51;66.09
72380;SHT30;60354;47.798;12.472;2023-07-31T06:18:14;20.55;66.38
72380;SHT30;60354;47.798;12.472;2023-07-31T06:20:40;20.67;65.71
72380;SHT30;60354;47.798;12.472;2023-07-31T06:23:06;20.49;66.32
72380;SHT30;60354;47.798;12.472;2023-07-31T06:25:31;20.51;66.03
72380;SHT30;60354;47.798;12.472;2023-07-31T06:27:57;20.67;65.82
72380;SHT30;60354;47.798;12.472;2023-07-31T06:30:22;20.84;65.10
72380;SHT30;60354;47.798;12.472;2023-07-31T06:32:48;20.89;65.23
72380;SHT30;60354;47.798;12.472;2023-07-31T06:35:13;20.81;66.22
72380;SHT30;60354;47.798;12.472;2023-07-31T06:37:39;20.91;66.17
72380;SHT30;60354;47.798;12.472;2023-07-31T06:40:06;21.03;65.75
72380;SHT30;60354;47.798;12.472;2023-07-31T06:42:34;21.30;64.88
72380;SHT30;60354;47.798;12.472;2023-07-31T06:45:00;21.53;64.58
72380;SHT30;60354;47.798;12.472;2023-07-31T06:47:26;21.70;63.98
72380;SHT30;60354;47.798;12.472;2023-07-31T06:49:51;21.93;64.05
72380;SHT30;60354;47.798;12.472;2023-07-31T06:52:17;21.74;63.96
72380;SHT30;60354;47.798;12.472;2023-07-31T06:54:42;21.84;64.62
72380;SHT30;60354;47.798;12.472;2023-07-31T06:57:08;21.86;63.86
72380;SHT30;60354;47.798;12.472;2023-07-31T06:59:33;21.97;63.05
72380;SHT30;60354;47.798;12.472;2023-07-31T07:01:59;22.05;63.62
72380;SHT30;60354;47.798;12.472;2023-07-31T07:04:24;22.04;62.78
72380;SHT30;60354;47.798;12.472;2023-07-31T07:06:50;22.05;63.54
72380;SHT30;60354;47.798;12.472;2023-07-31T07:09:15;22.05;62.52
72380;SHT30;60354;47.798;12.472;2023-07-31T07:11:40;22.11;62.71
72380;SHT30;60354;47.798;12.472;2023-07-31T07:14:06;22.11;61.87
72380;SHT30;60354;47.798;12.472;2023-07-31T07:16:31;22.11;62.82
72380;SHT30;60354;47.798;12.472;2023-07-31T07:18:57;22.11;62.98
72380;SHT30;60354;47.798;12.472;2023-07-31T07:21:23;21.94;61.92
72380;SHT30;60354;47.798;12.472;2023-07-31T07:23:48;21.96;61.87
72380;SHT30;60354;47.798;12.472;2023-07-31T07:26:13;21.94;62.11
72380;SHT30;60354;47.798;12.472;2023-07-31T07:28:39;21.98;61.89
72380;SHT30;60354;47.798;12.472;2023-07-31T07:31:04;21.94;61.47
72380;SHT30;60354;47.798;12.472;2023-07-31T07:33:30;22.04;62.75
72380;SHT30;60354;47.798;12.472;2023-07-31T07:36:00;22.38;61.43
72380;SHT30;60354;47.798;12.472;2023-07-31T07:38:25;22.69;60.28
72380;SHT30;60354;47.798;12.472;2023-07-31T07:40:51;22.73;62.16
72380;SHT30;60354;47.798;12.472;2023-07-31T07:43:18;22.83;60.91
72380;SHT30;60354;47.798;12.472;2023-07-31T07:45:43;22.44;62.15
72380;SHT30;60354;47.798;12.472;2023-07-31T07:48:09;22.09;62.64
72380;SHT30;60354;47.798;12.472;2023-07-31T07:50:35;21.93;62.39
72380;SHT30;60354;47.798;12.472;2023-07-31T07:53:00;21.98;63.16
72380;SHT30;60354;47.798;12.472;2023-07-31T07:55:26;21.90;62.32
72380;SHT30;60354;47.798;12.472;2023-07-31T07:57:51;21.80;60.96
72380;SHT30;60354;47.798;12.472;2023-07-31T08:00:16;21.60;61.61
72380;SHT30;60354;47.798;12.472;2023-07-31T08:02:43;21.86;61.81
72380;SHT30;60354;47.798;12.472;2023-07-31T08:05:08;21.73;61.12
72380;SHT30;60354;47.798;12.472;2023-07-31T08:07:34;21.86;61.24
72380;SHT30;60354;47.798;12.472;2023-07-31T08:10:00;21.77;61.18
72380;SHT30;60354;47.798;12.472;2023-07-31T08:12:25;21.86;61.14
72380;SHT30;60354;47.798;12.472;2023-07-31T08:14:51;22.09;61.16
72380;SHT30;60354;47.798;12.472;2023-07-31T08:17:21;21.84;59.61
72380;SHT30;60354;47.798;12.472;2023-07-31T08:19:46;22.32;58.62
72380;SHT30;60354;47.798;12.472;2023-07-31T08:22:12;22.29;61.09
72380;SHT30;60354;47.798;12.472;2023-07-31T08:24:37;22.41;57.81
72380;SHT30;60354;47.798;12.472;2023-07-31T08:27:03;22.51;57.98
72380;SHT30;60354;47.798;12.472;2023-07-31T08:29:28;22.79;56.73
72380;SHT30;60354;47.798;12.472;2023-07-31T08:31:54;22.66;56.95
72380;SHT30;60354;47.798;12.472;2023-07-31T08:34:20;22.69;56.83
72380;SHT30;60354;47.798;12.472;2023-07-31T08:36:45;22.72;56.70
72380;SHT30;60354;47.798;12.472;2023-07-31T08:39:10;23.08;57.73
72380;SHT30;60354;47.798;12.472;2023-07-31T08:41:39;22.95;56.17
72380;SHT30;60354;47.798;12.472;2023-07-31T08:44:06;23.13;54.95
72380;SHT30;60354;47.798;12.472;2023-07-31T08:46:32;23.04;55.79
72380;SHT30;60354;47.798;12.472;2023-07-31T08:48:59;22.63;55.82
72380;SHT30;60354;47.798;12.472;2023-07-31T08:51:25;22.58;57.27
72380;SHT30;60354;47.798;12.472;2023-07-31T08:53:53;22.77;57.76
72380;SHT30;60354;47.798;12.472;2023-07-31T08:56:18;22.97;57.36
72380;SHT30;60354;47.798;12.472;2023-07-31T08:58:46;23.16;56.76
72380;SHT30;60354;47.798;12.472;2023-07-31T09:01:12;23.21;56.00
72380;SHT30;60354;47.798;12.472;2023-07-31T09:03:38;23.02;55.36
72380;SHT30;60354;47.798;12.472;2023-07-31T09:06:06;23.21;55.88
72380;SHT30;60354;47.798;12.472;2023-07-31T09:08:32;23.18;56.73
72380;SHT30;60354;47.798;12.472;2023-07-31T09:11:02;23.11;57.22
72380;SHT30;60354;47.798;12.472;2023-07-31T09:13:31;23.11;55.25
72380;SHT30;60354;47.798;12.472;2023-07-31T09:15:56;23.47;54.76
72380;SHT30;60354;47.798;12.472;2023-07-31T09:18:22;23.75;54.87
72380;SHT30;60354;47.798;12.472;2023-07-31T09:21:05;24.19;55.88
72380;SHT30;60354;47.798;12.472;2023-07-31T09:23:43;24.26;57.16
72380;SHT30;60354;47.798;12.472;2023-07-31T09:26:10;24.43;58.11
72380;SHT30;60354;47.798;12.472;2023-07-31T09:28:36;24.46;56.01
72380;SHT30;60354;47.798;12.472;2023-07-31T09:31:01;24.46;58.09
72380;SHT30;60354;47.798;12.472;2023-07-31T09:33:27;24.70;56.61
72380;SHT30;60354;47.798;12.472;2023-07-31T09:35:52;24.86;56.78
72380;SHT30;60354;47.798;12.472;2023-07-31T09:38:18;24.47;55.80
72380;SHT30;60354;47.798;12.472;2023-07-31T09:40:46;24.08;56.27
72380;SHT30;60354;47.798;12.472;2023-07-31T09:43:13;24.05;56.45
72380;SHT30;60354;47.798;12.472;2023-07-31T09:45:43;23.86;56.71
72380;SHT30;60354;47.798;12.472;2023-07-31T09:48:10;23.85;57.63
72380;SHT30;60354;47.798;12.472;2023-07-31T09:50:40;23.89;59.08
72380;SHT30;60354;47.798;12.472;2023-07-31T09:53:06;23.98;58.50
72380;SHT30;60354;47.798;12.472;2023-07-31T09:55:32;23.82;58.38
72380;SHT30;60354;47.798;12.472;2023-07-31T09:57:58;23.75;58.44
72380;SHT30;60354;47.798;12.472;2023-07-31T10:00:24;23.65;57.83
72380;SHT30;60354;47.798;12.472;2023-07-31T10:02:54;23.81;57.52
72380;SHT30;60354;47.798;12.472;2023-07-31T10:05:20;23.89;57.33
72380;SHT30;60354;47.798;12.472;2023-07-31T10:07:54;23.81;59.20
72380;SHT30;60354;47.798;12.472;2023-07-31T10:10:21;23.55;59.12
72380;SHT30;60354;47.798;12.472;2023-07-31T10:12:52;23.62;58.65
72380;SHT30;60354;47.798;12.472;2023-07-31T10:15:18;23.84;60.23
72380;SHT30;60354;47.798;12.472;2023-07-31T10:17:47;24.39;57.19
72380;SHT30;60354;47.798;12.472;2023-07-31T10:20:14;24.39;57.27
72380;SHT30;60354;47.798;12.472;2023-07-31T10:22:42;24.20;57.39
72380;SHT30;60354;47.798;12.472;2023-07-31T10:25:09;23.98;58.06
72380;SHT30;60354;47.798;12.472;2023-07-31T10:27:36;23.82;57.86
72380;SHT30;60354;47.798;12.472;2023-07-31T10:30:04;23.38;57.96
72380;SHT30;60354;47.798;12.472;2023-07-31T10:32:31;23.89;58.17
72380;SHT30;60354;47.798;12.472;2023-07-31T10:34:57;23.90;58.21
72380;SHT30;60354;47.798;12.472;2023-07-31T10:37:38;24.44;57.80
72380;SHT30;60354;47.798;12.472;2023-07-31T10:40:12;24.52;56.06
72380;SHT30;60354;47.798;12.472;2023-07-31T10:45:27;24.67;56.28
72380;SHT30;60354;47.798;12.472;2023-07-31T10:50:29;25.39;54.46
72380;SHT30;60354;47.798;12.472;2023-07-31T10:52:58;25.12;56.12
72380;SHT30;60354;47.798;12.472;2023-07-31T10:55:31;25.12;56.55
72380;SHT30;60354;47.798;12.472;2023-07-31T10:58:05;24.80;55.17
72380;SHT30;60354;47.798;12.472;2023-07-31T11:00:31;25.25;54.98
72380;SHT30;60354;47.798;12.472;2023-07-31T11:03:03;25.35;54.31
72380;SHT30;60354;47.798;12.472;2023-07-31T11:05:43;25.38;54.55
72380;SHT30;60354;47.798;12.472;2023-07-31T11:10:40;25.11;54.85
72380;SHT30;60354;47.798;12.472;2023-07-31T11:13:06;25.59;53.40
72380;SHT30;60354;47.798;12.472;2023-07-31T11:15:31;25.63;54.04
72380;SHT30;60354;47.798;12.472;2023-07-31T11:17:57;25.97;54.49
72380;SHT30;60354;47.798;12.472;2023-07-31T11:20:26;26.21;54.46
72380;SHT30;60354;47.798;12.472;2023-07-31T11:22:52;26.21;53.97
72380;SHT30;60354;47.798;12.472;2023-07-31T11:25:18;25.83;53.15
72380;SHT30;60354;47.798;12.472;2023-07-31T11:27:43;25.86;54.55
72380;SHT30;60354;47.798;12.472;2023-07-31T11:30:09;25.52;54.37
72380;SHT30;60354;47.798;12.472;2023-07-31T11:32:38;26.04;53.56
72380;SHT30;60354;47.798;12.472;2023-07-31T11:35:04;26.07;52.29
72380;SHT30;60354;47.798;12.472;2023-07-31T11:37:57;26.30;52.83
72380;SHT30;60354;47.798;12.472;2023-07-31T11:40:23;25.94;53.45
72380;SHT30;60354;47.798;12.472;2023-07-31T11:42:58;26.13;52.72
72380;SHT30;60354;47.798;12.472;2023-07-31T11:45:26;25.75;53.60
72380;SHT30;60354;47.798;12.472;2023-07-31T11:47:54;25.34;53.36
72380;SHT30;60354;47.798;12.472;2023-07-31T11:50:19;25.49;55.65
72380;SHT30;60354;47.798;12.472;2023-07-31T11:52:46;25.46;54.71
72380;SHT30;60354;47.798;12.472;2023-07-31T11:55:12;25.52;55.40
72380;SHT30;60354;47.798;12.472;2023-07-31T11:57:39;25.62;54.02
72380;SHT30;60354;47.798;12.472;2023-07-31T12:00:07;25.46;53.46
72380;SHT30;60354;47.798;12.472;2023-07-31T12:02:33;25.96;54.94
72380;SHT30;60354;47.798;12.472;2023-07-31T12:04:59;25.82;52.77
72380;SHT30;60354;47.798;12.472;2023-07-31T12:07:25;25.65;53.25
72380;SHT30;60354;47.798;12.472;2023-07-31T12:09:56;25.55;52.67
72380;SHT30;60354;47.798;12.472;2023-07-31T12:12:23;25.61;52.76
72380;SHT30;60354;47.798;12.472;2023-07-31T12:14:49;26.01;52.18
72380;SHT30;60354;47.798;12.472;2023-07-31T12:17:16;26.06;52.10
72380;SHT30;60354;47.798;12.472;2023-07-31T12:19:42;25.92;53.53
72380;SHT30;60354;47.798;12.472;2023-07-31T12:22:14;25.89;53.44
72380;SHT30;60354;47.798;12.472;2023-07-31T12:24:42;25.58;52.57
72380;SHT30;60354;47.798;12.472;2023-07-31T12:27:14;25.56;52.45
72380;SHT30;60354;47.798;12.472;2023-07-31T12:29:42;25.55;52.40
72380;SHT30;60354;47.798;12.472;2023-07-31T12:32:23;25.28;52.67
72380;SHT30;60354;47.798;12.472;2023-07-31T12:34:50;25.93;53.44
72380;SHT30;60354;47.798;12.472;2023-07-31T12:37:16;25.89;52.86
72380;SHT30;60354;47.798;12.472;2023-07-31T12:39:41;25.80;52.39
72380;SHT30;60354;47.798;12.472;2023-07-31T12:42:07;25.34;52.97
72380;SHT30;60354;47.798;12.472;2023-07-31T12:44:32;25.69;54.21
72380;SHT30;60354;47.798;12.472;2023-07-31T12:46:57;26.08;51.93
72380;SHT30;60354;47.798;12.472;2023-07-31T12:49:23;26.40;51.08
72380;SHT30;60354;47.798;12.472;2023-07-31T12:51:48;26.23;50.88
72380;SHT30;60354;47.798;12.472;2023-07-31T12:54:14;26.07;50.94
72380;SHT30;60354;47.798;12.472;2023-07-31T12:56:40;26.17;52.20
72380;SHT30;60354;47.798;12.472;2023-07-31T12:59:05;26.28;51.33
72380;SHT30;60354;47.798;12.472;2023-07-31T13:01:31;26.24;52.88
72380;SHT30;60354;47.798;12.472;2023-07-31T13:03:57;26.10;51.41
72380;SHT30;60354;47.798;12.472;2023-07-31T13:06:22;26.18;53.34
72380;SHT30;60354;47.798;12.472;2023-07-31T13:08:48;26.23;51.34
72380;SHT30;60354;47.798;12.472;2023-07-31T13:11:13;26.21;52.42
72380;SHT30;60354;47.798;12.472;2023-07-31T13:13:39;26.03;51.49
72380;SHT30;60354;47.798;12.472;2023-07-31T13:16:04;25.83;51.71
72380;SHT30;60354;47.798;12.472;2023-07-31T13:18:30;26.00;51.89
72380;SHT30;60354;47.798;12.472;2023-07-31T13:20:55;25.87;53.54
72380;SHT30;60354;47.798;12.472;2023-07-31T13:23:20;25.97;52.72
72380;SHT30;60354;47.798;12.472;2023-07-31T13:25:47;25.69;52.99
72380;SHT30;60354;47.798;12.472;2023-07-31T13:28:12;25.79;53.72
72380;SHT30;60354;47.798;12.472;2023-07-31T13:30:37;25.86;53.13
72380;SHT30;60354;47.798;12.472;2023-07-31T13:33:03;25.90;54.70
72380;SHT30;60354;47.798;12.472;2023-07-31T13:35:29;26.03;54.00
72380;SHT30;60354;47.798;12.472;2023-07-31T13:37:56;25.97;53.32
72380;SHT30;60354;47.798;12.472;2023-07-31T13:40:22;26.07;52.94
72380;SHT30;60354;47.798;12.472;2023-07-31T13:42:48;26.17;52.86
72380;SHT30;60354;47.798;12.472;2023-07-31T13:45:13;26.06;52.77
72380;SHT30;60354;47.798;12.472;2023-07-31T13:47:39;26.04;51.27
72380;SHT30;60354;47.798;12.472;2023-07-31T13:50:05;26.04;51.52
72380;SHT30;60354;47.798;12.472;2023-07-31T13:52:30;25.94;52.23
72380;SHT30;60354;47.798;12.472;2023-07-31T13:54:56;25.82;52.61
72380;SHT30;60354;47.798;12.472;2023-07-31T13:57:21;25.82;52.64
72380;SHT30;60354;47.798;12.472;2023-07-31T13:59:48;25.80;52.28
72380;SHT30;60354;47.798;12.472;2023-07-31T14:02:14;25.96;50.55
72380;SHT30;60354;47.798;12.472;2023-07-31T14:04:40;25.87;52.85
72380;SHT30;60354;47.798;12.472;2023-07-31T14:07:06;25.70;51.42
72380;SHT30;60354;47.798;12.472;2023-07-31T14:09:31;26.13;51.97
72380;SHT30;60354;47.798;12.472;2023-07-31T14:11:57;26.01;51.73
72380;SHT30;60354;47.798;12.472;2023-07-31T14:14:22;25.89;52.67
72380;SHT30;60354;47.798;12.472;2023-07-31T14:16:48;25.82;52.51
72380;SHT30;60354;47.798;12.472;2023-07-31T14:19:13;25.72;52.33
72380;SHT30;60354;47.798;12.472;2023-07-31T14:21:39;25.72;52.28
72380;SHT30;60354;47.798;12.472;2023-07-31T14:24:04;25.69;52.53
72380;SHT30;60354;47.798;12.472;2023-07-31T14:26:31;25.55;52.76
72380;SHT30;60354;47.798;12.472;2023-07-31T14:28:57;25.72;53.10
72380;SHT30;60354;47.798;12.472;2023-07-31T14:31:22;25.76;53.62
72380;SHT30;60354;47.798;12.472;2023-07-31T14:33:48;25.92;52.71
72380;SHT30;60354;47.798;12.472;2023-07-31T14:36:13;25.94;51.34
72380;SHT30;60354;47.798;12.472;2023-07-31T14:38:39;25.83;51.50
72380;SHT30;60354;47.798;12.472;2023-07-31T14:41:04;26.01;52.37
72380;SHT30;60354;47.798;12.472;2023-07-31T14:43:30;25.75;53.28
72380;SHT30;60354;47.798;12.472;2023-07-31T14:45:55;25.63;53.17
72380;SHT30;60354;47.798;12.472;2023-07-31T14:48:24;25.76;53.52
72380;SHT30;60354;47.798;12.472;2023-07-31T14:50:50;25.90;52.81
72380;SHT30;60354;47.798;12.472;2023-07-31T14:53:15;25.87;53.70
72380;SHT30;60354;47.798;12.472;2023-07-31T14:55:40;25.92;53.28
72380;SHT30;60354;47.798;12.472;2023-07-31T14:58:06;26.07;53.45
72380;SHT30;60354;47.798;12.472;2023-07-31T15:00:31;26.04;52.74
72380;SHT30;60354;47.798;12.472;2023-07-31T15:02:57;26.04;53.58
72380;SHT30;60354;47.798;12.472;2023-07-31T15:05:23;26.01;52.79
72380;SHT30;60354;47.798;12.472;2023-07-31T15:07:48;26.03;52.87
72380;SHT30;60354;47.798;12.472;2023-07-31T15:10:14;26.16;52.45
72380;SHT30;60354;47.798;12.472;2023-07-31T15:12:40;25.75;51.63
72380;SHT30;60354;47.798;12.472;2023-07-31T15:15:06;25.63;52.11
72380;SHT30;60354;47.798;12.472;2023-07-31T15:17:32;25.66;53.17
72380;SHT30;60354;47.798;12.472;2023-07-31T15:19:57;25.66;52.76
72380;SHT30;60354;47.798;12.472;2023-07-31T15:22:23;25.66;52.95
72380;SHT30;60354;47.798;12.472;2023-07-31T15:24:50;25.63;53.32
72380;SHT30;60354;47.798;12.472;2023-07-31T15:27:15;25.70;53.00